Time;durP1;ratioP1;P1;durP2;ratioP2;P2;SDS_P1;SDS_P2;PMS_P1;PMS_P2;Temp;Humidity;BMP_temperature;BMP_pressure;BME280_temperature;BME280_humidity;BME280_pressure;Samples;Min_cycle;Max_cycle;Signal;HPM_P1;HPM_P2
2023/12/19 00:00:16;;;;;;;43.03;14.25;;;9.50;99.90;;;;;;6190295;23;20336;-75
2023/12/19 00:02:41;;;;;;;37.47;14.90;;;9.50;99.90;;;;;;6190262;23;20016;-75
2023/12/19 00:05:10;;;;;;;46.17;14.48;;;9.50;99.90;;;;;;6190476;23;20044;-75
2023/12/19 00:07:36;;;;;;;40.10;15.23;;;9.50;99.90;;;;;;6190347;23;20147;-75
2023/12/19 00:10:16;;;;;;;34.95;14.02;;;9.50;99.90;;;;;;6187800;23;20021;-75
2023/12/19 00:12:51;;;;;;;34.05;14.13;;;9.50;99.90;;;;;;6190665;23;20579;-75
2023/12/19 00:15:18;;;;;;;44.50;14.98;;;9.50;99.90;;;;;;6190555;23;20024;-75
2023/12/19 00:17:43;;;;;;;39.60;13.30;;;9.50;99.90;;;;;;6190384;23;20344;-75
2023/12/19 00:20:10;;;;;;;32.78;13.13;;;9.50;99.90;;;;;;6190287;23;20020;-75
2023/12/19 00:22:35;;;;;;;41.15;14.35;;;9.50;99.90;;;;;;6216764;23;20020;-75
2023/12/19 00:25:01;;;;;;;37.92;14.57;;;9.50;99.90;;;;;;6217198;23;20051;-75
2023/12/19 00:27:27;;;;;;;40.28;14.45;;;9.50;99.90;;;;;;6190200;23;20021;-75
2023/12/19 00:29:52;;;;;;;36.88;13.48;;;9.50;99.90;;;;;;6191382;23;20023;-75
2023/12/19 00:32:18;;;;;;;35.45;15.25;;;9.50;99.90;;;;;;6217147;23;20440;-75
2023/12/19 00:34:43;;;;;;;35.28;15.10;;;9.50;99.90;;;;;;6189994;23;20440;-75
2023/12/19 00:37:09;;;;;;;40.03;14.45;;;9.50;99.90;;;;;;6189986;23;20027;-75
2023/12/19 00:39:37;;;;;;;33.78;13.38;;;9.50;99.90;;;;;;6189923;23;20048;-75
2023/12/19 00:42:02;;;;;;;31.90;14.25;;;9.50;99.90;;;;;;6190019;23;20028;-75
2023/12/19 00:44:28;;;;;;;33.08;14.07;;;9.50;99.90;;;;;;6216726;23;20013;-75
2023/12/19 00:46:53;;;;;;;38.28;14.07;;;9.40;99.90;;;;;;6189880;23;20016;-75
2023/12/19 00:49:19;;;;;;;41.75;14.85;;;9.40;99.90;;;;;;6189960;23;20368;-75
2023/12/19 00:51:45;;;;;;;35.75;15.20;;;9.40;99.90;;;;;;6190518;23;20059;-75
2023/12/19 00:54:10;;;;;;;41.40;15.27;;;9.50;99.90;;;;;;6216601;23;20020;-75
2023/12/19 00:56:37;;;;;;;43.72;17.77;;;9.40;99.90;;;;;;6190038;23;20459;-75
2023/12/19 00:59:02;;;;;;;44.47;17.60;;;9.40;99.90;;;;;;6216848;23;20020;-75
2023/12/19 01:01:28;;;;;;;40.10;17.55;;;9.40;99.90;;;;;;6190054;23;20344;-75
2023/12/19 01:03:53;;;;;;;33.83;15.85;;;9.40;99.90;;;;;;6190000;23;20013;-75
2023/12/19 01:06:20;;;;;;;36.80;17.65;;;9.40;99.90;;;;;;6190006;23;20021;-75
2023/12/19 01:08:48;;;;;;;39.67;16.60;;;9.40;99.90;;;;;;6189762;23;20005;-75
2023/12/19 01:11:14;;;;;;;43.33;17.45;;;9.30;99.90;;;;;;6189736;23;20024;-75
2023/12/19 01:13:39;;;;;;;41.58;18.02;;;9.30;99.90;;;;;;6189949;23;20071;-75
2023/12/19 01:16:05;;;;;;;41.05;16.65;;;9.30;99.90;;;;;;6189995;23;20020;-75
2023/12/19 01:18:31;;;;;;;40.45;17.05;;;9.40;99.90;;;;;;6189712;23;20017;-75
2023/12/19 01:20:57;;;;;;;36.60;16.13;;;9.40;99.90;;;;;;6189287;23;20031;-75
2023/12/19 01:23:29;;;;;;;45.00;17.35;;;9.40;99.90;;;;;;6186876;23;20013;-75
2023/12/19 01:25:58;;;;;;;35.28;15.63;;;9.30;99.90;;;;;;6189436;23;20021;-75
2023/12/19 01:28:23;;;;;;;36.50;16.90;;;9.40;99.90;;;;;;6189453;23;20072;-75
2023/12/19 01:30:49;;;;;;;41.53;17.08;;;9.30;99.90;;;;;;6189587;23;20013;-75
2023/12/19 01:33:14;;;;;;;44.33;18.38;;;9.30;99.90;;;;;;6189606;23;20013;-75
2023/12/19 01:35:40;;;;;;;47.13;20.45;;;9.30;99.90;;;;;;6216059;23;20016;-75
2023/12/19 01:38:06;;;;;;;47.03;20.15;;;9.20;99.90;;;;;;6189698;23;20469;-75
2023/12/19 01:40:35;;;;;;;43.58;19.30;;;9.10;99.90;;;;;;6213832;23;20021;-75
2023/12/19 01:43:02;;;;;;;45.15;19.88;;;9.10;99.90;;;;;;6189284;23;20081;-75
2023/12/19 01:45:33;;;;;;;45.35;19.35;;;9.00;99.90;;;;;;6189470;23;20020;-75
2023/12/19 01:47:59;;;;;;;35.38;18.20;;;9.00;99.90;;;;;;6189704;23;20043;-75
2023/12/19 01:50:25;;;;;;;38.20;17.88;;;8.90;99.90;;;;;;6189597;23;20340;-75
2023/12/19 01:52:59;;;;;;;41.97;17.95;;;8.90;99.90;;;;;;6189386;23;20043;-75
2023/12/19 01:55:26;;;;;;;37.97;18.02;;;8.90;99.90;;;;;;6189551;23;20023;-75
2023/12/19 01:57:56;;;;;;;37.85;16.75;;;8.80;99.90;;;;;;6189867;23;20013;-75
2023/12/19 02:00:23;;;;;;;40.17;16.67;;;8.90;99.90;;;;;;6189484;23;20031;-75
2023/12/19 02:02:52;;;;;;;30.10;15.70;;;8.80;99.90;;;;;;6216033;23;20016;-75
2023/12/19 02:05:18;;;;;;;31.98;14.90;;;8.80;99.90;;;;;;6189446;23;20052;-75
2023/12/19 02:07:44;;;;;;;28.85;14.18;;;8.90;99.90;;;;;;6189434;23;20016;-75
2023/12/19 02:10:10;;;;;;;30.92;14.13;;;8.90;99.90;;;;;;6189071;23;20070;-75
2023/12/19 02:12:40;;;;;;;29.20;13.75;;;8.80;99.90;;;;;;6189457;23;20063;-75
2023/12/19 02:15:07;;;;;;;30.33;14.40;;;8.80;99.90;;;;;;6189166;23;20020;-75
2023/12/19 02:17:33;;;;;;;32.80;13.88;;;8.80;99.90;;;;;;6189447;23;20021;-75
2023/12/19 02:19:59;;;;;;;26.92;13.00;;;8.70;99.90;;;;;;6189268;23;20027;-75
2023/12/19 02:22:25;;;;;;;30.10;12.60;;;8.80;99.90;;;;;;6189373;23;20024;-75
2023/12/19 02:24:51;;;;;;;27.45;13.48;;;8.80;99.90;;;;;;6189403;23;20016;-75
2023/12/19 02:27:22;;;;;;;31.05;13.85;;;8.80;99.90;;;;;;6216199;23;20017;-75
2023/12/19 02:29:48;;;;;;;29.17;13.98;;;8.70;99.90;;;;;;6189238;23;20016;-75
2023/12/19 02:32:13;;;;;;;27.60;13.43;;;8.70;99.90;;;;;;6215847;23;20017;-75
2023/12/19 02:34:39;;;;;;;25.13;12.05;;;8.60;99.90;;;;;;6189307;23;20321;-75
2023/12/19 02:37:04;;;;;;;24.58;12.00;;;8.60;99.90;;;;;;6189346;23;20021;-75
2023/12/19 02:39:30;;;;;;;24.90;11.88;;;8.60;99.90;;;;;;6189134;23;20055;-75
2023/12/19 02:41:56;;;;;;;27.73;12.63;;;8.60;99.90;;;;;;6189246;23;20099;-75
2023/12/19 02:44:21;;;;;;;24.23;11.82;;;8.60;99.90;;;;;;6189365;23;20019;-75
2023/12/19 02:46:47;;;;;;;23.73;11.52;;;8.60;99.90;;;;;;6189227;23;20049;-75
2023/12/19 02:49:12;;;;;;;25.55;12.20;;;8.60;99.90;;;;;;6189214;23;20519;-75
2023/12/19 02:51:44;;;;;;;24.45;11.45;;;8.60;99.90;;;;;;6189208;23;20008;-75
2023/12/19 02:54:10;;;;;;;24.38;11.35;;;8.60;99.90;;;;;;6215860;23;20043;-75
2023/12/19 02:56:36;;;;;;;24.90;12.40;;;8.60;99.90;;;;;;6191104;23;20113;-75
2023/12/19 02:59:01;;;;;;;24.58;11.55;;;8.60;99.90;;;;;;6191164;23;20314;-75
2023/12/19 03:01:30;;;;;;;25.55;12.02;;;8.60;99.90;;;;;;6191018;23;20021;-75
2023/12/19 03:03:55;;;;;;;26.98;13.05;;;8.60;99.90;;;;;;6190980;23;20032;-75
2023/12/19 03:06:21;;;;;;;30.30;12.65;;;8.60;99.90;;;;;;6191064;23;20021;-75
2023/12/19 03:08:47;;;;;;;26.75;12.70;;;8.60;99.90;;;;;;6191135;23;20044;-75
2023/12/19 03:11:16;;;;;;;28.50;12.60;;;8.60;99.90;;;;;;6190894;23;20471;-75
2023/12/19 03:13:45;;;;;;;27.77;12.35;;;8.60;99.90;;;;;;6190965;23;20021;-75
2023/12/19 03:16:13;;;;;;;24.95;12.27;;;8.60;99.90;;;;;;6191090;23;20016;-75
2023/12/19 03:18:39;;;;;;;24.77;12.60;;;8.60;99.90;;;;;;6190845;23;20024;-75
2023/12/19 03:21:06;;;;;;;27.90;13.10;;;8.60;99.90;;;;;;6190969;23;20013;-75
2023/12/19 03:23:32;;;;;;;31.52;12.88;;;8.60;99.90;;;;;;6190997;23;20013;-75
2023/12/19 03:25:57;;;;;;;25.98;12.07;;;8.50;99.90;;;;;;6217930;23;20455;-75
2023/12/19 03:28:23;;;;;;;28.55;13.48;;;8.50;99.90;;;;;;6217855;23;20031;-75
2023/12/19 03:30:50;;;;;;;25.75;12.98;;;8.50;99.90;;;;;;6190892;23;20087;-75
2023/12/19 03:33:16;;;;;;;25.77;12.40;;;8.50;99.90;;;;;;6217521;23;20087;-75
2023/12/19 03:35:44;;;;;;;24.83;11.48;;;8.50;99.90;;;;;;6217758;23;20427;-75
2023/12/19 03:38:11;;;;;;;24.48;10.80;;;8.40;99.90;;;;;;6190800;23;20032;-75
2023/12/19 03:40:37;;;;;;;23.70;11.48;;;8.40;99.90;;;;;;6217103;23;20104;-75
2023/12/19 03:43:03;;;;;;;22.15;11.45;;;8.30;99.90;;;;;;6190811;23;20031;-75
2023/12/19 03:45:34;;;;;;;26.40;12.70;;;8.30;99.90;;;;;;6217680;23;20024;-75
2023/12/19 03:47:59;;;;;;;23.15;11.10;;;8.30;99.90;;;;;;6190711;23;20012;-75
2023/12/19 03:50:25;;;;;;;24.83;11.40;;;8.30;99.90;;;;;;6190663;23;20086;-75
2023/12/19 03:52:51;;;;;;;23.10;11.05;;;8.20;99.90;;;;;;6190752;23;20399;-75
2023/12/19 03:55:17;;;;;;;28.83;13.25;;;8.20;99.90;;;;;;6217275;23;20027;-75
2023/12/19 03:57:42;;;;;;;26.00;11.65;;;8.20;99.90;;;;;;6217404;23;20013;-75
2023/12/19 04:00:09;;;;;;;25.08;11.40;;;8.20;99.90;;;;;;6190545;23;20025;-75
2023/12/19 04:02:37;;;;;;;24.75;11.85;;;8.20;99.90;;;;;;6217369;23;20016;-75
2023/12/19 04:05:03;;;;;;;26.20;12.02;;;8.20;99.90;;;;;;6190634;23;20456;-75
2023/12/19 04:07:29;;;;;;;22.80;11.18;;;8.20;99.90;;;;;;6190382;23;20440;-75
2023/12/19 04:09:55;;;;;;;24.63;10.93;;;8.20;99.90;;;;;;6190639;23;20066;-75
2023/12/19 04:12:20;;;;;;;22.70;10.93;;;8.20;99.90;;;;;;6217406;23;20013;-75
2023/12/19 04:14:46;;;;;;;23.25;10.95;;;8.20;99.90;;;;;;6190515;23;20028;-75
2023/12/19 04:17:13;;;;;;;26.00;12.00;;;8.20;99.90;;;;;;6190479;23;20440;-75
2023/12/19 04:19:39;;;;;;;17.80;9.40;;;8.10;99.90;;;;;;6190199;23;20022;-75
2023/12/19 04:22:05;;;;;;;21.60;10.82;;;8.10;99.90;;;;;;6190123;23;20095;-75
2023/12/19 04:24:31;;;;;;;23.92;10.30;;;8.10;99.90;;;;;;6190155;23;20056;-75
2023/12/19 04:26:58;;;;;;;21.27;10.55;;;8.10;99.90;;;;;;6187556;23;20023;-75
2023/12/19 04:29:24;;;;;;;24.00;10.52;;;8.10;99.90;;;;;;6190129;23;20032;-75
2023/12/19 04:31:49;;;;;;;22.73;9.93;;;8.10;99.90;;;;;;6190301;23;20340;-75
2023/12/19 04:34:15;;;;;;;20.67;9.48;;;8.10;99.90;;;;;;6217154;23;20048;-75
2023/12/19 04:36:41;;;;;;;20.35;9.43;;;8.10;99.90;;;;;;6190328;23;20040;-75
2023/12/19 04:39:07;;;;;;;20.77;9.50;;;8.10;99.90;;;;;;6190071;23;20092;-75
2023/12/19 04:41:37;;;;;;;19.58;9.07;;;8.10;99.90;;;;;;6190099;23;20052;-75
2023/12/19 04:44:03;;;;;;;21.83;9.30;;;8.10;99.90;;;;;;6216717;23;20440;-75
2023/12/19 04:46:29;;;;;;;20.17;9.23;;;8.10;99.90;;;;;;6189917;23;20103;-75
2023/12/19 04:48:59;;;;;;;19.45;8.75;;;8.10;99.90;;;;;;6217023;23;20020;-75
2023/12/19 04:51:24;;;;;;;20.20;9.70;;;8.10;99.90;;;;;;6190115;23;20019;-75
2023/12/19 04:53:53;;;;;;;19.63;9.45;;;8.10;99.90;;;;;;6216660;23;20520;-75
2023/12/19 04:56:19;;;;;;;17.70;8.55;;;8.10;99.90;;;;;;6190068;23;20016;-75
2023/12/19 04:58:48;;;;;;;20.77;9.65;;;8.10;99.90;;;;;;6189833;23;20021;-75
2023/12/19 05:01:14;;;;;;;20.92;9.40;;;8.10;99.90;;;;;;6190030;23;20048;-75
2023/12/19 05:03:45;;;;;;;22.83;9.45;;;8.10;99.90;;;;;;6216962;23;20310;-75
2023/12/19 05:06:17;;;;;;;20.08;9.48;;;8.10;99.90;;;;;;6188970;23;20440;-75
2023/12/19 05:08:44;;;;;;;19.75;9.35;;;8.10;99.90;;;;;;6189980;23;20016;-75
2023/12/19 05:11:09;;;;;;;19.20;9.43;;;8.10;99.90;;;;;;6189911;23;20016;-75
2023/12/19 05:13:35;;;;;;;21.23;10.10;;;8.10;99.90;;;;;;6189883;23;20012;-75
2023/12/19 05:16:17;;;;;;;21.98;9.98;;;8.10;99.90;;;;;;6189616;23;20023;-75
2023/12/19 05:18:44;;;;;;;22.35;10.23;;;8.10;99.90;;;;;;6189349;23;20028;-75
2023/12/19 05:21:11;;;;;;;21.67;9.88;;;8.10;99.90;;;;;;6189786;23;20020;-76
2023/12/19 05:23:37;;;;;;;22.20;9.95;;;8.10;99.90;;;;;;6216393;23;20444;-75
2023/12/19 05:26:08;;;;;;;18.70;8.50;;;8.10;99.90;;;;;;6189562;23;20017;-76
2023/12/19 05:28:40;;;;;;;21.95;9.40;;;8.10;99.90;;;;;;6216342;23;20035;-75
2023/12/19 05:31:10;;;;;;;23.40;10.65;;;8.10;99.90;;;;;;6189789;23;20321;-75
2023/12/19 05:33:36;;;;;;;21.83;10.32;;;8.20;99.90;;;;;;6189530;23;20019;-75
2023/12/19 05:36:05;;;;;;;22.05;10.25;;;8.10;99.90;;;;;;6184960;23;20440;-75
2023/12/19 05:38:32;;;;;;;26.00;10.15;;;8.20;99.90;;;;;;6190061;23;20325;-75
2023/12/19 05:40:58;;;;;;;24.27;10.20;;;8.20;99.90;;;;;;6189472;23;20016;-75
2023/12/19 05:43:26;;;;;;;23.17;10.90;;;8.20;99.90;;;;;;6189413;23;20019;-75
2023/12/19 05:45:53;;;;;;;24.00;10.18;;;8.10;99.90;;;;;;6189497;23;20025;-75
2023/12/19 05:48:20;;;;;;;22.30;10.30;;;8.20;99.90;;;;;;6189664;23;20009;-75
2023/12/19 05:50:47;;;;;;;22.35;9.27;;;8.20;99.90;;;;;;6216345;23;20411;-75
2023/12/19 05:53:18;;;;;;;21.35;9.70;;;8.20;99.90;;;;;;6189477;23;20020;-75
2023/12/19 05:55:47;;;;;;;20.20;8.77;;;8.20;99.90;;;;;;6189558;23;20021;-75
2023/12/19 05:58:13;;;;;;;19.20;9.68;;;8.10;99.90;;;;;;6189585;23;20391;-75
2023/12/19 06:00:39;;;;;;;19.50;8.60;;;8.20;99.90;;;;;;6189204;23;20455;-75
2023/12/19 06:03:04;;;;;;;17.67;8.43;;;8.20;99.90;;;;;;6189366;23;20024;-74
2023/12/19 06:05:30;;;;;;;19.38;8.70;;;8.20;99.90;;;;;;6216076;23;20362;-75
2023/12/19 06:07:57;;;;;;;19.30;7.97;;;8.20;99.90;;;;;;6189503;23;20021;-75
2023/12/19 06:10:22;;;;;;;18.60;7.72;;;8.20;99.90;;;;;;6189419;23;20075;-75
2023/12/19 06:12:50;;;;;;;15.00;8.20;;;8.20;99.90;;;;;;6189482;23;20016;-75
2023/12/19 06:15:16;;;;;;;17.45;7.95;;;8.20;99.90;;;;;;6216285;23;20012;-75
2023/12/19 06:17:46;;;;;;;18.30;7.85;;;8.20;99.90;;;;;;6189373;23;20012;-75
2023/12/19 06:20:12;;;;;;;17.85;7.30;;;8.30;99.90;;;;;;6189284;23;20024;-75
2023/12/19 06:22:39;;;;;;;18.30;7.95;;;8.20;99.90;;;;;;6216299;23;20024;-75
2023/12/19 06:25:07;;;;;;;16.17;7.97;;;8.20;99.90;;;;;;6189408;23;20024;-75
2023/12/19 06:27:34;;;;;;;17.48;7.65;;;8.20;99.90;;;;;;6215734;23;20028;-75
2023/12/19 06:30:00;;;;;;;18.80;7.72;;;8.30;99.90;;;;;;6190534;23;20020;-75
2023/12/19 06:32:26;;;;;;;16.50;7.70;;;8.20;99.90;;;;;;6191314;23;20020;-75
2023/12/19 06:34:52;;;;;;;16.90;8.13;;;8.30;99.90;;;;;;6188799;23;20040;-75
2023/12/19 06:37:25;;;;;;;17.50;7.65;;;8.20;99.90;;;;;;6187893;23;20032;-75
2023/12/19 06:39:51;;;;;;;17.55;7.82;;;8.30;99.90;;;;;;6191264;23;20031;-75
2023/12/19 06:42:16;;;;;;;19.83;7.85;;;8.30;99.90;;;;;;6190955;23;20056;-75
2023/12/19 06:44:42;;;;;;;18.13;8.63;;;8.30;99.90;;;;;;6191252;23;20021;-75
2023/12/19 06:47:07;;;;;;;20.05;9.02;;;8.30;99.90;;;;;;6191129;23;20120;-75
2023/12/19 06:49:33;;;;;;;16.77;8.13;;;8.30;99.90;;;;;;6191282;23;20012;-75
2023/12/19 06:51:58;;;;;;;19.10;8.68;;;8.30;99.90;;;;;;6191137;23;20067;-75
2023/12/19 06:54:24;;;;;;;23.50;8.27;;;8.30;99.90;;;;;;6191233;23;20159;-74
2023/12/19 06:56:51;;;;;;;18.83;8.35;;;8.30;99.90;;;;;;6191133;23;20084;-75
2023/12/19 06:59:17;;;;;;;20.90;8.32;;;8.30;99.90;;;;;;6191161;23;20188;-75
2023/12/19 07:01:43;;;;;;;17.08;8.52;;;8.30;99.90;;;;;;6191194;23;20038;-74
2023/12/19 07:04:08;;;;;;;16.30;7.35;;;8.40;99.90;;;;;;6191185;23;20028;-75
2023/12/19 07:06:36;;;;;;;21.90;9.43;;;8.30;99.90;;;;;;6191370;23;20020;-75
2023/12/19 07:09:02;;;;;;;21.17;8.77;;;8.40;99.90;;;;;;6191083;23;20020;-75
2023/12/19 07:11:28;;;;;;;19.00;8.75;;;8.40;99.90;;;;;;6191117;23;20095;-75
2023/12/19 07:13:53;;;;;;;21.38;8.82;;;8.40;99.90;;;;;;6190879;23;20309;-74
2023/12/19 07:16:19;;;;;;;19.90;8.35;;;8.50;99.90;;;;;;6191058;23;20072;-74
2023/12/19 07:18:47;;;;;;;21.92;9.20;;;8.50;99.90;;;;;;6190991;23;20032;-75
2023/12/19 07:21:20;;;;;;;19.33;9.00;;;8.50;99.90;;;;;;6190900;23;20092;-75
2023/12/19 07:23:46;;;;;;;23.60;9.45;;;8.50;99.90;;;;;;6217602;23;20020;-75
2023/12/19 07:26:23;;;;;;;21.05;9.13;;;8.50;99.90;;;;;;6190886;23;20444;-75
2023/12/19 07:28:50;;;;;;;20.35;9.00;;;8.50;99.90;;;;;;6190948;23;20025;-75
2023/12/19 07:31:27;;;;;;;23.00;9.68;;;8.50;99.90;;;;;;6190804;23;20436;-75
2023/12/19 07:34:01;;;;;;;20.63;8.80;;;8.50;99.90;;;;;;6190817;23;20027;-75
2023/12/19 07:36:27;;;;;;;18.83;8.55;;;8.60;99.90;;;;;;6190532;23;20048;-74
2023/12/19 07:38:53;;;;;;;16.73;8.15;;;8.60;99.90;;;;;;6190717;23;20020;-75
2023/12/19 07:41:20;;;;;;;20.80;8.20;;;8.60;99.90;;;;;;6190439;23;20392;-75
2023/12/19 07:43:51;;;;;;;20.88;8.75;;;8.70;99.90;;;;;;6189026;23;20017;-75
2023/12/19 07:46:17;;;;;;;19.73;8.48;;;8.70;99.90;;;;;;6190730;23;20088;-74
2023/12/19 07:48:52;;;;;;;28.50;9.90;;;8.80;99.90;;;;;;6190729;23;20057;-74
2023/12/19 07:51:23;;;;;;;19.50;8.35;;;8.80;99.90;;;;;;6217560;23;20048;-75
2023/12/19 07:53:49;;;;;;;19.55;7.65;;;8.80;99.90;;;;;;6190454;23;20092;-74
2023/12/19 07:56:15;;;;;;;18.98;9.10;;;8.80;99.90;;;;;;6190564;23;20027;-75
2023/12/19 07:58:41;;;;;;;20.70;8.27;;;8.90;99.90;;;;;;6190549;23;20017;-75
2023/12/19 08:01:11;;;;;;;20.67;6.72;;;8.80;99.90;;;;;;6190489;23;20020;-74
2023/12/19 08:03:37;;;;;;;18.17;7.75;;;8.90;99.90;;;;;;6190390;23;20017;-75
2023/12/19 08:06:03;;;;;;;19.15;8.02;;;8.90;99.90;;;;;;6190530;23;20021;-75
2023/12/19 08:08:29;;;;;;;19.40;7.97;;;9.00;99.90;;;;;;6190459;23;20020;-74
2023/12/19 08:10:54;;;;;;;18.88;8.32;;;8.90;99.90;;;;;;6190486;23;20349;-74
2023/12/19 08:13:20;;;;;;;20.77;7.90;;;8.90;99.90;;;;;;6189936;23;20322;-74
2023/12/19 08:15:49;;;;;;;17.60;7.55;;;9.00;99.90;;;;;;6190168;23;20027;-75
2023/12/19 08:18:15;;;;;;;20.75;8.32;;;8.90;99.90;;;;;;6189950;23;20123;-75
2023/12/19 08:20:47;;;;;;;21.92;9.75;;;9.00;99.90;;;;;;6189678;23;20349;-75
2023/12/19 08:23:13;;;;;;;26.63;9.82;;;9.00;99.90;;;;;;6190390;23;20016;-75
2023/12/19 08:25:42;;;;;;;26.35;9.55;;;9.00;99.90;;;;;;6190183;23;20013;-75
2023/12/19 08:28:08;;;;;;;24.00;9.38;;;9.00;99.90;;;;;;6217247;23;20021;-75
2023/12/19 08:30:34;;;;;;;24.65;9.57;;;9.00;99.90;;;;;;6190221;23;20017;-75
2023/12/19 08:33:00;;;;;;;24.27;9.20;;;9.00;99.90;;;;;;6190320;23;20039;-74
2023/12/19 08:35:25;;;;;;;28.75;10.27;;;9.10;99.90;;;;;;6190042;23;20059;-76
2023/12/19 08:37:52;;;;;;;26.05;9.43;;;9.00;99.90;;;;;;6189919;23;20397;-75
2023/12/19 08:40:27;;;;;;;23.55;9.00;;;9.10;99.90;;;;;;6216900;23;20095;-74
2023/12/19 08:42:53;;;;;;;27.90;9.98;;;9.10;99.90;;;;;;6189375;23;20055;-75
2023/12/19 08:45:23;;;;;;;27.58;10.15;;;9.10;99.90;;;;;;6189012;23;20108;-75
2023/12/19 08:47:50;;;;;;;28.15;10.85;;;9.10;99.90;;;;;;6189797;23;20059;-75
2023/12/19 08:50:17;;;;;;;25.52;11.07;;;9.00;99.90;;;;;;6186469;23;20020;-75
2023/12/19 08:52:43;;;;;;;30.30;11.88;;;9.10;99.90;;;;;;6216133;23;20016;-75
2023/12/19 08:55:13;;;;;;;29.35;11.35;;;9.10;99.90;;;;;;6189592;23;20016;-75
2023/12/19 08:57:43;;;;;;;28.65;10.18;;;9.00;99.90;;;;;;6188463;23;20344;-75
2023/12/19 09:00:16;;;;;;;27.80;10.73;;;9.10;99.90;;;;;;6216095;23;20016;-75
2023/12/19 09:03:05;;;;;;;26.05;10.63;;;9.10;99.90;;;;;;6216302;23;20096;-75
2023/12/19 09:05:31;;;;;;;23.23;10.48;;;9.10;99.90;;;;;;6189421;23;20099;-75
2023/12/19 09:07:56;;;;;;;24.45;9.98;;;9.00;99.90;;;;;;6189627;23;20062;-75
2023/12/19 09:10:22;;;;;;;28.52;10.80;;;9.00;99.90;;;;;;6189505;23;20363;-75
2023/12/19 09:12:48;;;;;;;32.97;11.95;;;9.10;99.90;;;;;;6189369;23;20020;-75
2023/12/19 09:15:13;;;;;;;33.00;11.00;;;9.10;99.90;;;;;;6189294;23;20023;-75
2023/12/19 09:17:39;;;;;;;31.08;12.00;;;9.10;99.90;;;;;;6216071;23;20044;-75
2023/12/19 09:20:07;;;;;;;30.20;11.45;;;9.10;99.90;;;;;;6189475;23;20024;-75
2023/12/19 09:22:33;;;;;;;28.90;10.93;;;9.10;99.90;;;;;;6216400;23;20019;-76
2023/12/19 09:24:59;;;;;;;27.55;10.02;;;9.10;99.90;;;;;;6189421;23;20052;-75
2023/12/19 09:27:24;;;;;;;32.13;10.73;;;9.00;99.90;;;;;;6216319;23;20429;-75
2023/12/19 09:29:50;;;;;;;33.13;10.60;;;9.10;99.90;;;;;;6189155;23;20475;-75
2023/12/19 09:32:16;;;;;;;31.60;10.43;;;9.10;99.90;;;;;;6189552;23;20344;-75
2023/12/19 09:34:42;;;;;;;28.15;9.35;;;9.10;99.90;;;;;;6189374;23;20013;-76
2023/12/19 09:37:07;;;;;;;26.25;10.45;;;9.10;99.90;;;;;;6189343;23;20016;-75
2023/12/19 09:39:33;;;;;;;25.30;8.77;;;9.10;99.90;;;;;;6188962;23;20021;-75
2023/12/19 09:41:59;;;;;;;25.98;8.75;;;9.10;99.90;;;;;;6216290;23;20016;-75
2023/12/19 09:44:28;;;;;;;24.38;8.82;;;9.10;99.90;;;;;;6189236;23;20017;-75
2023/12/19 09:46:54;;;;;;;30.85;9.18;;;9.10;99.90;;;;;;6189592;23;20321;-75
2023/12/19 09:49:25;;;;;;;26.13;9.45;;;9.10;99.90;;;;;;6188871;23;20024;-75
2023/12/19 09:51:52;;;;;;;21.33;8.57;;;9.10;99.90;;;;;;6189078;23;20480;-75
2023/12/19 09:54:22;;;;;;;26.67;9.20;;;9.20;99.90;;;;;;6189249;23;20477;-75
2023/12/19 09:56:50;;;;;;;24.33;8.35;;;9.20;99.90;;;;;;6189321;23;20020;-75
2023/12/19 09:59:19;;;;;;;24.10;8.77;;;9.20;99.90;;;;;;6189102;23;20027;-76
2023/12/19 10:01:48;;;;;;;24.27;8.07;;;9.20;99.90;;;;;;6189201;23;20026;-75
2023/12/19 10:04:14;;;;;;;22.63;8.70;;;9.20;99.90;;;;;;6188471;23;20013;-75
2023/12/19 10:06:52;;;;;;;28.60;8.95;;;9.20;99.90;;;;;;6188778;23;20095;-76
2023/12/19 10:09:18;;;;;;;20.67;7.80;;;9.20;99.90;;;;;;6189242;23;20020;-76
2023/12/19 10:11:43;;;;;;;24.58;7.78;;;9.20;99.90;;;;;;6189386;23;20019;-75
2023/12/19 10:14:11;;;;;;;24.05;7.75;;;9.30;99.90;;;;;;6189019;23;20025;-75
2023/12/19 10:16:43;;;;;;;22.42;8.15;;;9.30;99.90;;;;;;6189499;23;20012;-75
2023/12/19 10:19:13;;;;;;;27.05;7.88;;;9.30;99.90;;;;;;6188788;23;20472;-76
2023/12/19 10:21:40;;;;;;;26.00;8.07;;;9.30;99.90;;;;;;6213652;23;20027;-75
2023/12/19 10:24:08;;;;;;;26.40;7.65;;;9.30;99.90;;;;;;6188353;23;20074;-75
2023/12/19 10:26:33;;;;;;;24.25;8.27;;;9.30;99.90;;;;;;6188894;23;20385;-75
2023/12/19 10:28:59;;;;;;;29.02;9.32;;;9.30;99.90;;;;;;6188860;23;20012;-74
2023/12/19 10:31:34;;;;;;;22.42;8.27;;;9.30;99.90;;;;;;6215405;23;20117;-74
2023/12/19 10:34:04;;;;;;;26.65;7.88;;;9.30;99.90;;;;;;6188539;23;20024;-75
2023/12/19 10:36:33;;;;;;;19.38;7.85;;;9.30;99.90;;;;;;6189021;23;20017;-74
2023/12/19 10:39:02;;;;;;;27.65;7.70;;;9.40;99.90;;;;;;6189326;23;20432;-74
2023/12/19 10:41:32;;;;;;;18.67;7.55;;;9.40;99.90;;;;;;6188594;23;20024;-74
2023/12/19 10:44:00;;;;;;;25.40;8.10;;;9.40;99.90;;;;;;6188996;23;20020;-78
2023/12/19 10:46:32;;;;;;;22.27;8.13;;;9.40;99.90;;;;;;6188773;23;20111;-75
2023/12/19 10:48:59;;;;;;;22.60;8.00;;;9.50;99.90;;;;;;6215851;23;20082;-75
2023/12/19 10:51:36;;;;;;;23.17;7.60;;;9.50;99.90;;;;;;6188822;23;20021;-75
2023/12/19 10:54:13;;;;;;;18.40;6.85;;;9.50;99.90;;;;;;6188937;23;20016;-75
2023/12/19 10:57:16;;;;;;;13.27;6.10;;;9.50;99.90;;;;;;6188883;23;20040;-75
2023/12/19 11:00:10;;;;;;;14.63;6.60;;;9.50;99.90;;;;;;6188994;23;20012;-75
2023/12/19 11:02:50;;;;;;;13.57;5.50;;;9.50;99.90;;;;;;6188479;23;20047;-75
2023/12/19 11:05:28;;;;;;;13.45;5.60;;;9.60;99.90;;;;;;6215885;23;20066;-75
2023/12/19 11:08:05;;;;;;;16.55;5.03;;;9.60;99.90;;;;;;6215465;23;20074;-75
2023/12/19 11:10:38;;;;;;;13.02;5.43;;;9.60;99.90;;;;;;6215929;23;20009;-75
2023/12/19 11:13:04;;;;;;;14.27;5.70;;;9.60;99.90;;;;;;6188663;23;20514;-76
2023/12/19 11:15:37;;;;;;;16.52;5.38;;;9.60;99.90;;;;;;6188371;23;20385;-75
2023/12/19 11:18:15;;;;;;;12.35;5.50;;;9.60;99.90;;;;;;6190630;23;20104;-75
2023/12/19 11:20:53;;;;;;;12.98;6.50;;;9.60;99.90;;;;;;6190677;23;20027;-75
2023/12/19 11:23:33;;;;;;;15.43;5.57;;;9.70;99.90;;;;;;6190507;23;20020;-75
2023/12/19 11:26:05;;;;;;;11.77;5.65;;;9.70;99.90;;;;;;6190726;23;20052;-75
2023/12/19 11:28:38;;;;;;;12.55;5.28;;;9.70;99.90;;;;;;6190488;23;20043;-75
2023/12/19 11:31:23;;;;;;;10.88;5.57;;;9.70;99.90;;;;;;6190632;23;20104;-75
2023/12/19 11:33:52;;;;;;;12.32;5.18;;;9.70;99.90;;;;;;6190293;23;20039;-75
2023/12/19 11:36:20;;;;;;;15.70;5.63;;;9.70;99.90;;;;;;6190553;23;20017;-75
2023/12/19 11:38:47;;;;;;;16.85;5.68;;;9.70;99.90;;;;;;6190512;23;20028;-75
2023/12/19 11:41:39;;;;;;;11.57;4.57;;;9.70;99.90;;;;;;6190324;23;20020;-75
2023/12/19 11:44:04;;;;;;;10.45;4.57;;;9.70;99.90;;;;;;6190573;23;20020;-75
2023/12/19 11:46:30;;;;;;;12.10;4.50;;;9.70;99.90;;;;;;6190322;23;20344;-75
2023/12/19 11:48:55;;;;;;;8.90;4.20;;;9.70;99.90;;;;;;6190314;23;20384;-75
2023/12/19 11:51:46;;;;;;;8.18;3.67;;;9.60;99.90;;;;;;6190182;23;20052;-76
2023/12/19 11:54:15;;;;;;;11.35;3.90;;;9.70;99.90;;;;;;6172972;23;20026;-75
2023/12/19 11:56:44;;;;;;;9.23;4.38;;;9.60;99.90;;;;;;6189880;23;20499;-76
2023/12/19 11:59:11;;;;;;;10.23;4.35;;;9.70;99.90;;;;;;6189625;23;20028;-75
2023/12/19 12:01:41;;;;;;;9.32;4.05;;;9.70;99.90;;;;;;6190167;23;20353;-75
2023/12/19 12:04:10;;;;;;;10.63;4.45;;;9.70;99.90;;;;;;6189937;23;20104;-78
2023/12/19 12:06:38;;;;;;;12.52;4.45;;;9.70;99.90;;;;;;6190239;23;20046;-76
2023/12/19 12:09:05;;;;;;;9.20;3.90;;;9.70;99.90;;;;;;6216725;23;20067;-75
2023/12/19 12:11:52;;;;;;;10.75;3.20;;;9.60;99.90;;;;;;6189957;23;20019;-75
2023/12/19 12:14:22;;;;;;;8.15;3.20;;;9.60;99.90;;;;;;6190186;23;20016;-75
2023/12/19 12:16:47;;;;;;;6.90;2.78;;;9.60;99.90;;;;;;6190034;23;20344;-75
2023/12/19 12:19:15;;;;;;;9.98;3.38;;;9.60;99.90;;;;;;6189717;23;20021;-75
2023/12/19 12:21:51;;;;;;;9.45;3.13;;;9.60;99.90;;;;;;6190532;23;20020;-75
2023/12/19 12:24:20;;;;;;;6.65;2.78;;;9.60;99.90;;;;;;6189919;23;20349;-75
2023/12/19 12:26:50;;;;;;;8.57;2.83;;;9.60;99.90;;;;;;6189666;23;20020;-75
2023/12/19 12:29:17;;;;;;;6.90;2.42;;;9.60;99.90;;;;;;6190044;23;20012;-75
2023/12/19 12:31:46;;;;;;;7.15;3.25;;;9.60;99.90;;;;;;6189965;23;20022;-75
2023/12/19 12:34:12;;;;;;;8.63;2.92;;;9.50;99.90;;;;;;6189519;23;20020;-75
2023/12/19 12:36:38;;;;;;;9.88;3.25;;;9.60;99.90;;;;;;6189694;23;20020;-76
2023/12/19 12:39:04;;;;;;;6.10;2.58;;;9.60;99.90;;;;;;6189626;23;20019;-75
2023/12/19 12:41:33;;;;;;;6.35;2.30;;;9.50;99.90;;;;;;6216279;23;20024;-75
2023/12/19 12:43:59;;;;;;;8.35;2.10;;;9.50;99.90;;;;;;6189832;23;20441;-75
2023/12/19 12:46:24;;;;;;;5.72;1.70;;;9.50;99.90;;;;;;6216638;23;20052;-75